Main page
METAR-TAF:

METAR-TAF

Airports :

Budapest, Hungary

Budapest Ferenc Liszt International Airport

latitude: 47-26N, longitude: 019-16E, elevation: 151 m

Current weather observation

The report was made 15 minutes ago, at 09:00 UTC
Wind 14 kt from the North
Temperature 10°C
Humidity 32%
Pressure 1021 hPa
Visibility 10 km or more
no clouds below 1500 m and no cumulonimbus

METAR: LHBP 260900Z 01014KT CAVOK 10/M06 Q1021 NOSIG

Time: 11:15 (09:15 UTC)

Forecast

The report was made 4 hours and 15 minutes ago, at 05:00 UTC
Forecast valid from 26 at 06 UTC to 27 at 06 UTC
Wind 8 kt from the North/Northeast
Visibility 10 km or more
no clouds below 1500 m and no cumulonimbus
Temporary
from 26 at 06 UTC to 26 at 14 UTC
Wind 12 kt from the Northeast with gusts up to 26 kt
Becoming
from 26 at 17 UTC to 26 at 20 UTC
Wind 3 kt from variable directions

TAF: LHBP 260500Z 2606/2706 02008KT CAVOK TEMPO 2606/2614 04012G26KT BECMG 2617/2620 VRB03KT

Weather observations and forecasts of more than 4000 airports (METAR and TAF reports).

The available stations are represented by yellow and red dots on the map.

Hover mouse over dot to see the name of the station.

Then click to see weather observations and forecasts.

To change the map : click on the green buttons with a black cross to zoom in, on the green button with a dash to zoom out, or on the green arrows for adjacent maps.


METAR-TAF: